sensor_id;sensor_type;location;lat;lon;timestamp;P1;durP1;ratioP1;P2;durP2;ratioP2
28431;SDS011;15664;51.302;7.744;2023-04-01T00:01:57;6.20;;;1.40;;
28431;SDS011;15664;51.302;7.744;2023-04-01T00:04:22;3.03;;;1.00;;
28431;SDS011;15664;51.302;7.744;2023-04-01T00:06:48;2.93;;;1.10;;
28431;SDS011;15664;51.302;7.744;2023-04-01T00:09:14;2.70;;;0.93;;
28431;SDS011;15664;51.302;7.744;2023-04-01T00:11:39;3.42;;;1.02;;
28431;SDS011;15664;51.302;7.744;2023-04-01T00:14:06;2.27;;;1.10;;
28431;SDS011;15664;51.302;7.744;2023-04-01T00:16:32;2.13;;;1.10;;
28431;SDS011;15664;51.302;7.744;2023-04-01T00:18:58;2.35;;;1.15;;
28431;SDS011;15664;51.302;7.744;2023-04-01T00:21:25;5.28;;;1.40;;
28431;SDS011;15664;51.302;7.744;2023-04-01T00:23:51;4.85;;;1.20;;
28431;SDS011;15664;51.302;7.744;2023-04-01T00:26:17;2.45;;;0.90;;
28431;SDS011;15664;51.302;7.744;2023-04-01T00:28:46;2.60;;;0.90;;
28431;SDS011;15664;51.302;7.744;2023-04-01T00:31:12;3.15;;;1.05;;
28431;SDS011;15664;51.302;7.744;2023-04-01T00:33:39;3.17;;;1.17;;
28431;SDS011;15664;51.302;7.744;2023-04-01T00:36:16;2.38;;;1.17;;
28431;SDS011;15664;51.302;7.744;2023-04-01T00:38:43;1.95;;;1.10;;
28431;SDS011;15664;51.302;7.744;2023-04-01T00:41:10;4.00;;;1.10;;
28431;SDS011;15664;51.302;7.744;2023-04-01T00:43:39;3.05;;;1.23;;
28431;SDS011;15664;51.302;7.744;2023-04-01T00:46:06;3.00;;;1.20;;
28431;SDS011;15664;51.302;7.744;2023-04-01T00:48:35;1.52;;;1.00;;
28431;SDS011;15664;51.302;7.744;2023-04-01T00:51:14;3.95;;;0.90;;
28431;SDS011;15664;51.302;7.744;2023-04-01T00:53:45;1.13;;;0.80;;
28431;SDS011;15664;51.302;7.744;2023-04-01T00:56:17;1.77;;;0.70;;
28431;SDS011;15664;51.302;7.744;2023-04-01T00:58:47;3.85;;;0.90;;
28431;SDS011;15664;51.302;7.744;2023-04-01T01:01:20;2.97;;;0.80;;
28431;SDS011;15664;51.302;7.744;2023-04-01T01:03:49;2.05;;;1.02;;
28431;SDS011;15664;51.302;7.744;2023-04-01T01:09:14;2.20;;;1.15;;
28431;SDS011;15664;51.302;7.744;2023-04-01T01:17:35;3.20;;;1.33;;
28431;SDS011;15664;51.302;7.744;2023-04-01T01:37:24;1.40;;;0.80;;
28431;SDS011;15664;51.302;7.744;2023-04-01T01:40:03;2.45;;;1.00;;
28431;SDS011;15664;51.302;7.744;2023-04-01T01:42:35;1.77;;;0.77;;
28431;SDS011;15664;51.302;7.744;2023-04-01T01:45:04;1.85;;;0.90;;
28431;SDS011;15664;51.302;7.744;2023-04-01T01:47:32;2.80;;;1.40;;
28431;SDS011;15664;51.302;7.744;2023-04-01T01:50:00;3.47;;;1.27;;
28431;SDS011;15664;51.302;7.744;2023-04-01T01:52:27;2.13;;;1.23;;
28431;SDS011;15664;51.302;7.744;2023-04-01T01:54:56;1.73;;;0.80;;
28431;SDS011;15664;51.302;7.744;2023-04-01T01:57:34;3.33;;;1.13;;
28431;SDS011;15664;51.302;7.744;2023-04-01T02:00:07;2.43;;;0.80;;
28431;SDS011;15664;51.302;7.744;2023-04-01T02:02:40;2.28;;;1.08;;
28431;SDS011;15664;51.302;7.744;2023-04-01T02:05:14;6.22;;;1.50;;
28431;SDS011;15664;51.302;7.744;2023-04-01T02:07:45;5.35;;;1.73;;
28431;SDS011;15664;51.302;7.744;2023-04-01T02:10:16;3.97;;;1.63;;
28431;SDS011;15664;51.302;7.744;2023-04-01T02:12:45;2.40;;;1.30;;
28431;SDS011;15664;51.302;7.744;2023-04-01T02:15:12;2.85;;;1.70;;
28431;SDS011;15664;51.302;7.744;2023-04-01T02:17:44;2.33;;;1.10;;
28431;SDS011;15664;51.302;7.744;2023-04-01T02:20:16;2.35;;;1.10;;
28431;SDS011;15664;51.302;7.744;2023-04-01T02:22:47;1.92;;;0.80;;
28431;SDS011;15664;51.302;7.744;2023-04-01T02:25:20;1.93;;;1.07;;
28431;SDS011;15664;51.302;7.744;2023-04-01T02:27:50;4.05;;;1.23;;
28431;SDS011;15664;51.302;7.744;2023-04-01T02:30:17;1.13;;;0.80;;
28431;SDS011;15664;51.302;7.744;2023-04-01T02:32:45;1.90;;;0.98;;
28431;SDS011;15664;51.302;7.744;2023-04-01T02:35:13;2.65;;;1.00;;
28431;SDS011;15664;51.302;7.744;2023-04-01T02:37:40;2.77;;;1.00;;
28431;SDS011;15664;51.302;7.744;2023-04-01T02:40:08;1.60;;;0.90;;
28431;SDS011;15664;51.302;7.744;2023-04-01T02:42:37;3.92;;;1.50;;
28431;SDS011;15664;51.302;7.744;2023-04-01T02:45:03;2.92;;;0.80;;
28431;SDS011;15664;51.302;7.744;2023-04-01T02:47:30;4.70;;;1.00;;
28431;SDS011;15664;51.302;7.744;2023-04-01T02:49:55;1.17;;;0.80;;
28431;SDS011;15664;51.302;7.744;2023-04-01T02:52:24;2.63;;;1.13;;
28431;SDS011;15664;51.302;7.744;2023-04-01T02:54:50;1.30;;;0.75;;
28431;SDS011;15664;51.302;7.744;2023-04-01T02:57:16;3.27;;;0.90;;
28431;SDS011;15664;51.302;7.744;2023-04-01T02:59:41;1.30;;;0.90;;
28431;SDS011;15664;51.302;7.744;2023-04-01T03:02:07;2.90;;;0.80;;
28431;SDS011;15664;51.302;7.744;2023-04-01T03:04:33;1.80;;;1.03;;
28431;SDS011;15664;51.302;7.744;2023-04-01T03:06:58;2.23;;;1.10;;
28431;SDS011;15664;51.302;7.744;2023-04-01T03:09:24;2.65;;;1.10;;
28431;SDS011;15664;51.302;7.744;2023-04-01T03:11:50;1.27;;;0.80;;
28431;SDS011;15664;51.302;7.744;2023-04-01T03:14:15;1.30;;;0.55;;
28431;SDS011;15664;51.302;7.744;2023-04-01T03:16:41;0.77;;;0.77;;
28431;SDS011;15664;51.302;7.744;2023-04-01T03:19:07;1.92;;;0.90;;
28431;SDS011;15664;51.302;7.744;2023-04-01T03:21:32;1.47;;;0.80;;
28431;SDS011;15664;51.302;7.744;2023-04-01T03:23:59;0.80;;;0.60;;
28431;SDS011;15664;51.302;7.744;2023-04-01T03:26:27;1.45;;;0.88;;
28431;SDS011;15664;51.302;7.744;2023-04-01T03:28:53;1.13;;;0.60;;
28431;SDS011;15664;51.302;7.744;2023-04-01T03:31:19;1.60;;;0.88;;
28431;SDS011;15664;51.302;7.744;2023-04-01T03:33:50;2.20;;;1.03;;
28431;SDS011;15664;51.302;7.744;2023-04-01T03:36:16;1.10;;;0.70;;
28431;SDS011;15664;51.302;7.744;2023-04-01T03:38:42;1.43;;;0.80;;
28431;SDS011;15664;51.302;7.744;2023-04-01T03:41:14;1.52;;;0.90;;
28431;SDS011;15664;51.302;7.744;2023-04-01T03:43:42;1.17;;;0.75;;
28431;SDS011;15664;51.302;7.744;2023-04-01T03:46:09;1.58;;;0.70;;
28431;SDS011;15664;51.302;7.744;2023-04-01T03:48:35;1.13;;;0.73;;
28431;SDS011;15664;51.302;7.744;2023-04-01T03:51:00;3.15;;;0.85;;
28431;SDS011;15664;51.302;7.744;2023-04-01T03:53:26;1.15;;;0.63;;
28431;SDS011;15664;51.302;7.744;2023-04-01T03:55:55;0.70;;;0.60;;
28431;SDS011;15664;51.302;7.744;2023-04-01T03:58:21;3.47;;;0.90;;
28431;SDS011;15664;51.302;7.744;2023-04-01T04:00:47;2.97;;;1.00;;
28431;SDS011;15664;51.302;7.744;2023-04-01T04:03:12;1.80;;;0.95;;
28431;SDS011;15664;51.302;7.744;2023-04-01T04:05:38;1.57;;;0.90;;
28431;SDS011;15664;51.302;7.744;2023-04-01T04:08:12;1.73;;;0.80;;
28431;SDS011;15664;51.302;7.744;2023-04-01T04:10:37;1.53;;;0.80;;
28431;SDS011;15664;51.302;7.744;2023-04-01T04:13:03;0.60;;;0.60;;
28431;SDS011;15664;51.302;7.744;2023-04-01T04:15:30;1.42;;;0.90;;
28431;SDS011;15664;51.302;7.744;2023-04-01T04:17:56;1.43;;;0.80;;
28431;SDS011;15664;51.302;7.744;2023-04-01T04:20:21;0.97;;;0.40;;
28431;SDS011;15664;51.302;7.744;2023-04-01T04:22:47;1.80;;;0.50;;
28431;SDS011;15664;51.302;7.744;2023-04-01T04:25:12;0.60;;;0.60;;
28431;SDS011;15664;51.302;7.744;2023-04-01T04:27:38;1.30;;;0.70;;
28431;SDS011;15664;51.302;7.744;2023-04-01T04:30:09;1.43;;;0.83;;
28431;SDS011;15664;51.302;7.744;2023-04-01T04:32:36;1.75;;;0.60;;
28431;SDS011;15664;51.302;7.744;2023-04-01T04:35:01;1.20;;;0.80;;
28431;SDS011;15664;51.302;7.744;2023-04-01T04:37:28;1.85;;;0.80;;
28431;SDS011;15664;51.302;7.744;2023-04-01T04:39:54;1.20;;;0.70;;
28431;SDS011;15664;51.302;7.744;2023-04-01T04:42:20;1.08;;;0.70;;
28431;SDS011;15664;51.302;7.744;2023-04-01T04:44:45;3.17;;;1.07;;
28431;SDS011;15664;51.302;7.744;2023-04-01T04:47:11;1.95;;;1.27;;
28431;SDS011;15664;51.302;7.744;2023-04-01T04:49:37;4.37;;;1.00;;
28431;SDS011;15664;51.302;7.744;2023-04-01T04:52:06;2.00;;;1.00;;
28431;SDS011;15664;51.302;7.744;2023-04-01T04:54:32;1.50;;;0.83;;
28431;SDS011;15664;51.302;7.744;2023-04-01T04:56:59;1.80;;;1.00;;
28431;SDS011;15664;51.302;7.744;2023-04-01T04:59:28;3.10;;;1.00;;
28431;SDS011;15664;51.302;7.744;2023-04-01T05:01:59;1.45;;;0.90;;
28431;SDS011;15664;51.302;7.744;2023-04-01T05:04:25;1.63;;;0.80;;
28431;SDS011;15664;51.302;7.744;2023-04-01T05:06:50;2.80;;;1.00;;
28431;SDS011;15664;51.302;7.744;2023-04-01T05:09:16;1.55;;;1.00;;
28431;SDS011;15664;51.302;7.744;2023-04-01T05:11:43;2.28;;;1.00;;
28431;SDS011;15664;51.302;7.744;2023-04-01T05:14:13;1.30;;;0.65;;
28431;SDS011;15664;51.302;7.744;2023-04-01T05:16:42;1.95;;;1.00;;
28431;SDS011;15664;51.302;7.744;2023-04-01T05:19:08;2.00;;;0.90;;
28431;SDS011;15664;51.302;7.744;2023-04-01T05:21:33;1.60;;;0.90;;
28431;SDS011;15664;51.302;7.744;2023-04-01T05:23:59;1.13;;;0.82;;
28431;SDS011;15664;51.302;7.744;2023-04-01T05:26:25;1.33;;;0.82;;
28431;SDS011;15664;51.302;7.744;2023-04-01T05:28:51;1.57;;;1.00;;
28431;SDS011;15664;51.302;7.744;2023-04-01T05:31:16;1.20;;;0.77;;
28431;SDS011;15664;51.302;7.744;2023-04-01T05:33:45;1.75;;;0.98;;
28431;SDS011;15664;51.302;7.744;2023-04-01T05:36:14;2.75;;;0.95;;
28431;SDS011;15664;51.302;7.744;2023-04-01T05:38:41;2.07;;;1.00;;
28431;SDS011;15664;51.302;7.744;2023-04-01T05:41:10;2.00;;;1.00;;
28431;SDS011;15664;51.302;7.744;2023-04-01T05:43:40;1.98;;;0.90;;
28431;SDS011;15664;51.302;7.744;2023-04-01T05:46:29;1.73;;;0.80;;
28431;SDS011;15664;51.302;7.744;2023-04-01T05:49:01;2.83;;;1.10;;
28431;SDS011;15664;51.302;7.744;2023-04-01T05:51:27;2.53;;;1.20;;
28431;SDS011;15664;51.302;7.744;2023-04-01T05:53:52;1.50;;;0.90;;
28431;SDS011;15664;51.302;7.744;2023-04-01T05:56:18;2.20;;;1.00;;
28431;SDS011;15664;51.302;7.744;2023-04-01T05:58:50;2.47;;;1.07;;
28431;SDS011;15664;51.302;7.744;2023-04-01T06:01:18;2.15;;;1.00;;
28431;SDS011;15664;51.302;7.744;2023-04-01T06:03:44;2.92;;;1.20;;
28431;SDS011;15664;51.302;7.744;2023-04-01T06:06:14;3.35;;;1.42;;
28431;SDS011;15664;51.302;7.744;2023-04-01T06:08:43;2.93;;;1.30;;
28431;SDS011;15664;51.302;7.744;2023-04-01T06:14:08;2.42;;;1.10;;
28431;SDS011;15664;51.302;7.744;2023-04-01T06:16:56;2.08;;;1.08;;
28431;SDS011;15664;51.302;7.744;2023-04-01T06:19:47;1.57;;;0.87;;
28431;SDS011;15664;51.302;7.744;2023-04-01T06:22:37;2.65;;;1.17;;
28431;SDS011;15664;51.302;7.744;2023-04-01T06:28:40;2.45;;;1.25;;
28431;SDS011;15664;51.302;7.744;2023-04-01T06:31:25;2.35;;;1.40;;
28431;SDS011;15664;51.302;7.744;2023-04-01T06:49:40;2.70;;;1.20;;
28431;SDS011;15664;51.302;7.744;2023-04-01T06:55:26;2.67;;;1.10;;
28431;SDS011;15664;51.302;7.744;2023-04-01T06:58:28;2.38;;;1.00;;
28431;SDS011;15664;51.302;7.744;2023-04-01T07:01:13;2.00;;;0.90;;
28431;SDS011;15664;51.302;7.744;2023-04-01T07:03:47;1.70;;;0.80;;
28431;SDS011;15664;51.302;7.744;2023-04-01T07:08:59;2.97;;;1.30;;
28431;SDS011;15664;51.302;7.744;2023-04-01T07:11:49;3.05;;;1.30;;
28431;SDS011;15664;51.302;7.744;2023-04-01T07:14:41;3.63;;;1.38;;
28431;SDS011;15664;51.302;7.744;2023-04-01T07:17:14;2.97;;;1.33;;
28431;SDS011;15664;51.302;7.744;2023-04-01T07:19:56;3.03;;;1.23;;
28431;SDS011;15664;51.302;7.744;2023-04-01T07:25:05;2.80;;;1.40;;
28431;SDS011;15664;51.302;7.744;2023-04-01T07:27:38;2.90;;;1.42;;
28431;SDS011;15664;51.302;7.744;2023-04-01T07:30:06;2.53;;;1.10;;
28431;SDS011;15664;51.302;7.744;2023-04-01T07:32:41;3.88;;;1.33;;
28431;SDS011;15664;51.302;7.744;2023-04-01T07:37:55;2.72;;;1.50;;
28431;SDS011;15664;51.302;7.744;2023-04-01T07:43:02;3.63;;;1.40;;
28431;SDS011;15664;51.302;7.744;2023-04-01T07:54:10;2.75;;;1.20;;
28431;SDS011;15664;51.302;7.744;2023-04-01T07:56:45;2.22;;;1.10;;
28431;SDS011;15664;51.302;7.744;2023-04-01T07:59:26;2.83;;;1.10;;
28431;SDS011;15664;51.302;7.744;2023-04-01T08:16:45;2.93;;;1.10;;
28431;SDS011;15664;51.302;7.744;2023-04-01T08:22:34;2.78;;;1.30;;
28431;SDS011;15664;51.302;7.744;2023-04-01T08:25:46;2.75;;;1.13;;
28431;SDS011;15664;51.302;7.744;2023-04-01T08:30:52;3.17;;;1.50;;
28431;SDS011;15664;51.302;7.744;2023-04-01T08:33:24;3.25;;;1.38;;
28431;SDS011;15664;51.302;7.744;2023-04-01T08:36:07;2.67;;;1.23;;
28431;SDS011;15664;51.302;7.744;2023-04-01T08:50:35;8.50;;;1.80;;
28431;SDS011;15664;51.302;7.744;2023-04-01T08:59:26;2.77;;;1.13;;
28431;SDS011;15664;51.302;7.744;2023-04-01T09:08:08;3.13;;;1.25;;
28431;SDS011;15664;51.302;7.744;2023-04-01T09:14:15;2.47;;;1.20;;
28431;SDS011;15664;51.302;7.744;2023-04-01T09:17:06;2.05;;;1.00;;
28431;SDS011;15664;51.302;7.744;2023-04-01T09:19:49;2.42;;;1.05;;
28431;SDS011;15664;51.302;7.744;2023-04-01T09:25:16;2.78;;;1.40;;
28431;SDS011;15664;51.302;7.744;2023-04-01T09:27:54;1.80;;;1.00;;
28431;SDS011;15664;51.302;7.744;2023-04-01T09:33:07;3.22;;;1.20;;
28431;SDS011;15664;51.302;7.744;2023-04-01T09:41:00;2.27;;;1.20;;
28431;SDS011;15664;51.302;7.744;2023-04-01T09:44:02;2.38;;;1.20;;
28431;SDS011;15664;51.302;7.744;2023-04-01T10:06:48;2.10;;;1.20;;
28431;SDS011;15664;51.302;7.744;2023-04-01T10:26:16;3.53;;;1.37;;
28431;SDS011;15664;51.302;7.744;2023-04-01T10:29:23;2.65;;;1.13;;
28431;SDS011;15664;51.302;7.744;2023-04-01T10:52:57;2.50;;;1.27;;
28431;SDS011;15664;51.302;7.744;2023-04-01T10:56:22;3.50;;;1.63;;
28431;SDS011;15664;51.302;7.744;2023-04-01T11:35:19;4.43;;;1.80;;
28431;SDS011;15664;51.302;7.744;2023-04-01T11:37:49;3.13;;;1.17;;
28431;SDS011;15664;51.302;7.744;2023-04-01T11:43:21;3.42;;;1.38;;
28431;SDS011;15664;51.302;7.744;2023-04-01T11:46:23;3.15;;;1.30;;
28431;SDS011;15664;51.302;7.744;2023-04-01T11:49:02;3.67;;;1.60;;
28431;SDS011;15664;51.302;7.744;2023-04-01T11:51:54;3.65;;;1.48;;
28431;SDS011;15664;51.302;7.744;2023-04-01T11:57:13;3.33;;;1.63;;
28431;SDS011;15664;51.302;7.744;2023-04-01T11:59:59;3.47;;;1.40;;
28431;SDS011;15664;51.302;7.744;2023-04-01T12:06:14;3.13;;;1.55;;
28431;SDS011;15664;51.302;7.744;2023-04-01T12:09:01;3.93;;;1.80;;
28431;SDS011;15664;51.302;7.744;2023-04-01T12:27:53;4.80;;;2.05;;
28431;SDS011;15664;51.302;7.744;2023-04-01T12:36:44;3.13;;;1.60;;
28431;SDS011;15664;51.302;7.744;2023-04-01T12:39:22;3.50;;;1.52;;
28431;SDS011;15664;51.302;7.744;2023-04-01T12:48:04;2.17;;;1.10;;
28431;SDS011;15664;51.302;7.744;2023-04-01T12:50:52;2.33;;;1.30;;
28431;SDS011;15664;51.302;7.744;2023-04-01T12:56:21;2.65;;;1.08;;
28431;SDS011;15664;51.302;7.744;2023-04-01T12:59:03;2.47;;;1.27;;
28431;SDS011;15664;51.302;7.744;2023-04-01T13:07:14;2.72;;;1.20;;
28431;SDS011;15664;51.302;7.744;2023-04-01T13:11:02;2.45;;;1.45;;
28431;SDS011;15664;51.302;7.744;2023-04-01T13:13:23;2.70;;;1.30;;
28431;SDS011;15664;51.302;7.744;2023-04-01T13:15:54;3.35;;;1.40;;
28431;SDS011;15664;51.302;7.744;2023-04-01T13:21:19;2.15;;;0.90;;
28431;SDS011;15664;51.302;7.744;2023-04-01T13:24:00;2.55;;;1.13;;
28431;SDS011;15664;51.302;7.744;2023-04-01T13:29:32;2.88;;;1.20;;
28431;SDS011;15664;51.302;7.744;2023-04-01T13:32:05;3.00;;;1.27;;
28431;SDS011;15664;51.302;7.744;2023-04-01T13:34:46;4.35;;;1.48;;
28431;SDS011;15664;51.302;7.744;2023-04-01T13:40:16;3.53;;;1.60;;
28431;SDS011;15664;51.302;7.744;2023-04-01T13:46:12;4.53;;;1.90;;
28431;SDS011;15664;51.302;7.744;2023-04-01T13:54:00;5.88;;;2.10;;
28431;SDS011;15664;51.302;7.744;2023-04-01T14:01:59;5.93;;;2.57;;
28431;SDS011;15664;51.302;7.744;2023-04-01T14:04:49;5.68;;;2.40;;
28431;SDS011;15664;51.302;7.744;2023-04-01T14:07:47;9.60;;;3.15;;
28431;SDS011;15664;51.302;7.744;2023-04-01T14:13:01;6.88;;;2.80;;
28431;SDS011;15664;51.302;7.744;2023-04-01T14:15:50;5.83;;;2.73;;
28431;SDS011;15664;51.302;7.744;2023-04-01T14:18:35;6.00;;;2.40;;
28431;SDS011;15664;51.302;7.744;2023-04-01T14:26:44;6.95;;;3.00;;
28431;SDS011;15664;51.302;7.744;2023-04-01T14:35:16;5.88;;;2.35;;
28431;SDS011;15664;51.302;7.744;2023-04-01T14:40:52;7.85;;;2.80;;
28431;SDS011;15664;51.302;7.744;2023-04-01T14:43:28;6.90;;;2.73;;
28431;SDS011;15664;51.302;7.744;2023-04-01T14:46:08;7.35;;;3.00;;
28431;SDS011;15664;51.302;7.744;2023-04-01T14:49:02;9.02;;;2.80;;
28431;SDS011;15664;51.302;7.744;2023-04-01T14:51:38;9.15;;;3.20;;
28431;SDS011;15664;51.302;7.744;2023-04-01T14:54:09;6.55;;;2.58;;
28431;SDS011;15664;51.302;7.744;2023-04-01T14:56:48;5.77;;;2.53;;
28431;SDS011;15664;51.302;7.744;2023-04-01T15:01:50;6.45;;;2.10;;
28431;SDS011;15664;51.302;7.744;2023-04-01T15:04:53;6.15;;;2.83;;
28431;SDS011;15664;51.302;7.744;2023-04-01T15:10:33;7.60;;;2.90;;
28431;SDS011;15664;51.302;7.744;2023-04-01T15:16:13;6.25;;;2.58;;
28431;SDS011;15664;51.302;7.744;2023-04-01T15:19:12;5.47;;;2.08;;
28431;SDS011;15664;51.302;7.744;2023-04-01T15:22:12;5.63;;;1.90;;
28431;SDS011;15664;51.302;7.744;2023-04-01T15:25:10;5.03;;;2.00;;
28431;SDS011;15664;51.302;7.744;2023-04-01T15:27:56;6.85;;;2.80;;
28431;SDS011;15664;51.302;7.744;2023-04-01T15:30:52;4.82;;;1.70;;
28431;SDS011;15664;51.302;7.744;2023-04-01T15:33:55;4.80;;;2.13;;
28431;SDS011;15664;51.302;7.744;2023-04-01T16:09:31;4.30;;;2.13;;
28431;SDS011;15664;51.302;7.744;2023-04-01T16:17:36;4.97;;;2.10;;
28431;SDS011;15664;51.302;7.744;2023-04-01T16:20:49;8.20;;;3.50;;
28431;SDS011;15664;51.302;7.744;2023-04-01T16:26:05;7.32;;;3.00;;
28431;SDS011;15664;51.302;7.744;2023-04-01T16:28:53;6.72;;;2.95;;
28431;SDS011;15664;51.302;7.744;2023-04-01T16:31:35;6.78;;;3.30;;
28431;SDS011;15664;51.302;7.744;2023-04-01T16:37:17;10.98;;;3.83;;
28431;SDS011;15664;51.302;7.744;2023-04-01T16:43:04;5.95;;;2.65;;
28431;SDS011;15664;51.302;7.744;2023-04-01T16:45:40;6.50;;;2.47;;
28431;SDS011;15664;51.302;7.744;2023-04-01T16:48:34;6.43;;;2.90;;
28431;SDS011;15664;51.302;7.744;2023-04-01T16:51:15;5.97;;;2.33;;
28431;SDS011;15664;51.302;7.744;2023-04-01T16:53:43;6.55;;;2.80;;
28431;SDS011;15664;51.302;7.744;2023-04-01T16:59:02;7.18;;;3.20;;
28431;SDS011;15664;51.302;7.744;2023-04-01T17:01:49;7.43;;;2.60;;
28431;SDS011;15664;51.302;7.744;2023-04-01T17:09:59;8.15;;;3.17;;
28431;SDS011;15664;51.302;7.744;2023-04-01T17:15:32;7.72;;;2.80;;
28431;SDS011;15664;51.302;7.744;2023-04-01T17:18:24;6.15;;;2.60;;
28431;SDS011;15664;51.302;7.744;2023-04-01T17:24:12;4.65;;;1.90;;
28431;SDS011;15664;51.302;7.744;2023-04-01T17:27:10;4.78;;;1.90;;
28431;SDS011;15664;51.302;7.744;2023-04-01T17:35:40;5.40;;;2.23;;
28431;SDS011;15664;51.302;7.744;2023-04-01T17:41:25;5.72;;;2.25;;
28431;SDS011;15664;51.302;7.744;2023-04-01T17:47:04;5.40;;;2.10;;
28431;SDS011;15664;51.302;7.744;2023-04-01T17:50:02;6.73;;;2.50;;
28431;SDS011;15664;51.302;7.744;2023-04-01T17:52:30;5.10;;;2.15;;
28431;SDS011;15664;51.302;7.744;2023-04-01T17:55:21;5.25;;;2.13;;
28431;SDS011;15664;51.302;7.744;2023-04-01T18:06:33;7.83;;;2.97;;
28431;SDS011;15664;51.302;7.744;2023-04-01T18:12:15;7.55;;;3.08;;
28431;SDS011;15664;51.302;7.744;2023-04-01T18:14:59;10.52;;;4.47;;
28431;SDS011;15664;51.302;7.744;2023-04-01T18:18:11;9.27;;;3.65;;
28431;SDS011;15664;51.302;7.744;2023-04-01T18:23:36;9.02;;;3.78;;
28431;SDS011;15664;51.302;7.744;2023-04-01T18:26:10;8.85;;;3.10;;
28431;SDS011;15664;51.302;7.744;2023-04-01T18:28:54;9.82;;;3.60;;
28431;SDS011;15664;51.302;7.744;2023-04-01T18:31:32;8.95;;;3.90;;
28431;SDS011;15664;51.302;7.744;2023-04-01T18:37:32;7.72;;;3.22;;
28431;SDS011;15664;51.302;7.744;2023-04-01T18:40:11;9.15;;;3.35;;
28431;SDS011;15664;51.302;7.744;2023-04-01T18:45:40;9.75;;;3.92;;
28431;SDS011;15664;51.302;7.744;2023-04-01T18:48:30;7.87;;;2.90;;
28431;SDS011;15664;51.302;7.744;2023-04-01T18:51:10;7.60;;;3.20;;
28431;SDS011;15664;51.302;7.744;2023-04-01T18:53:41;7.68;;;2.95;;
28431;SDS011;15664;51.302;7.744;2023-04-01T18:56:23;8.10;;;2.78;;
28431;SDS011;15664;51.302;7.744;2023-04-01T18:59:00;7.78;;;3.17;;
28431;SDS011;15664;51.302;7.744;2023-04-01T19:04:20;11.15;;;4.55;;
28431;SDS011;15664;51.302;7.744;2023-04-01T19:06:56;11.15;;;4.30;;
28431;SDS011;15664;51.302;7.744;2023-04-01T19:09:27;9.82;;;3.90;;
28431;SDS011;15664;51.302;7.744;2023-04-01T19:17:47;12.45;;;4.95;;
28431;SDS011;15664;51.302;7.744;2023-04-01T19:20:17;10.30;;;4.15;;
28431;SDS011;15664;51.302;7.744;2023-04-01T19:25:51;10.25;;;3.90;;
28431;SDS011;15664;51.302;7.744;2023-04-01T19:28:39;12.10;;;5.50;;
28431;SDS011;15664;51.302;7.744;2023-04-01T19:36:52;8.35;;;3.78;;
28431;SDS011;15664;51.302;7.744;2023-04-01T19:42:08;11.53;;;4.90;;
28431;SDS011;15664;51.302;7.744;2023-04-01T19:44:52;9.98;;;4.15;;
28431;SDS011;15664;51.302;7.744;2023-04-01T19:47:38;15.13;;;6.00;;
28431;SDS011;15664;51.302;7.744;2023-04-01T19:50:18;7.53;;;3.03;;
28431;SDS011;15664;51.302;7.744;2023-04-01T19:58:45;13.88;;;5.63;;
28431;SDS011;15664;51.302;7.744;2023-04-01T20:01:22;11.23;;;4.88;;
28431;SDS011;15664;51.302;7.744;2023-04-01T20:03:54;11.45;;;4.10;;
28431;SDS011;15664;51.302;7.744;2023-04-01T20:11:52;10.40;;;3.53;;
28431;SDS011;15664;51.302;7.744;2023-04-01T20:25:24;9.77;;;4.55;;
28431;SDS011;15664;51.302;7.744;2023-04-01T20:28:14;8.52;;;3.72;;
28431;SDS011;15664;51.302;7.744;2023-04-01T20:33:33;8.98;;;3.50;;
28431;SDS011;15664;51.302;7.744;2023-04-01T20:47:15;9.65;;;4.43;;
28431;SDS011;15664;51.302;7.744;2023-04-01T20:52:27;11.38;;;3.70;;
28431;SDS011;15664;51.302;7.744;2023-04-01T20:55:18;10.90;;;4.45;;
28431;SDS011;15664;51.302;7.744;2023-04-01T20:57:55;11.95;;;4.97;;
28431;SDS011;15664;51.302;7.744;2023-04-01T21:03:45;10.50;;;4.07;;
28431;SDS011;15664;51.302;7.744;2023-04-01T21:09:26;10.68;;;4.70;;
28431;SDS011;15664;51.302;7.744;2023-04-01T21:12:13;10.98;;;4.45;;
28431;SDS011;15664;51.302;7.744;2023-04-01T21:14:50;13.25;;;4.93;;
28431;SDS011;15664;51.302;7.744;2023-04-01T21:31:29;12.20;;;4.37;;
28431;SDS011;15664;51.302;7.744;2023-04-01T21:34:30;11.05;;;4.50;;
28431;SDS011;15664;51.302;7.744;2023-04-01T21:51:08;8.95;;;4.13;;
28431;SDS011;15664;51.302;7.744;2023-04-01T22:02:12;11.73;;;4.63;;
28431;SDS011;15664;51.302;7.744;2023-04-01T22:13:14;11.15;;;4.13;;
28431;SDS011;15664;51.302;7.744;2023-04-01T22:18:46;11.05;;;4.47;;
28431;SDS011;15664;51.302;7.744;2023-04-01T22:21:24;11.45;;;4.60;;
28431;SDS011;15664;51.302;7.744;2023-04-01T22:24:04;11.75;;;4.18;;
28431;SDS011;15664;51.302;7.744;2023-04-01T22:29:32;10.17;;;4.00;;
28431;SDS011;15664;51.302;7.744;2023-04-01T22:32:08;10.43;;;4.28;;
28431;SDS011;15664;51.302;7.744;2023-04-01T22:40:21;9.88;;;4.05;;
28431;SDS011;15664;51.302;7.744;2023-04-01T22:43:00;11.87;;;4.27;;
28431;SDS011;15664;51.302;7.744;2023-04-01T22:48:41;9.30;;;3.72;;
28431;SDS011;15664;51.302;7.744;2023-04-01T22:51:17;10.77;;;4.32;;
28431;SDS011;15664;51.302;7.744;2023-04-01T22:54:09;11.70;;;4.28;;
28431;SDS011;15664;51.302;7.744;2023-04-01T22:56:42;10.03;;;4.30;;
28431;SDS011;15664;51.302;7.744;2023-04-01T22:59:19;12.30;;;4.68;;
28431;SDS011;15664;51.302;7.744;2023-04-01T23:02:18;9.93;;;3.75;;
28431;SDS011;15664;51.302;7.744;2023-04-01T23:04:52;9.00;;;3.30;;
28431;SDS011;15664;51.302;7.744;2023-04-01T23:07:33;8.95;;;3.60;;
28431;SDS011;15664;51.302;7.744;2023-04-01T23:10:28;9.50;;;3.67;;
28431;SDS011;15664;51.302;7.744;2023-04-01T23:13:03;13.15;;;3.47;;
28431;SDS011;15664;51.302;7.744;2023-04-01T23:15:36;10.00;;;3.78;;
28431;SDS011;15664;51.302;7.744;2023-04-01T23:18:09;9.27;;;3.60;;
28431;SDS011;15664;51.302;7.744;2023-04-01T23:23:48;8.00;;;3.13;;
28431;SDS011;15664;51.302;7.744;2023-04-01T23:29:03;5.88;;;1.77;;
28431;SDS011;15664;51.302;7.744;2023-04-01T23:31:31;4.75;;;1.58;;
28431;SDS011;15664;51.302;7.744;2023-04-01T23:34:01;3.03;;;1.20;;
28431;SDS011;15664;51.302;7.744;2023-04-01T23:36:29;2.93;;;1.30;;
28431;SDS011;15664;51.302;7.744;2023-04-01T23:38:56;3.65;;;1.27;;
28431;SDS011;15664;51.302;7.744;2023-04-01T23:41:25;3.53;;;1.27;;
28431;SDS011;15664;51.302;7.744;2023-04-01T23:43:56;3.77;;;1.67;;
28431;SDS011;15664;51.302;7.744;2023-04-01T23:46:25;2.80;;;1.13;;
28431;SDS011;15664;51.302;7.744;2023-04-01T23:48:52;2.15;;;1.00;;
28431;SDS011;15664;51.302;7.744;2023-04-01T23:51:22;2.80;;;0.97;;
28431;SDS011;15664;51.302;7.744;2023-04-01T23:56:41;4.35;;;1.50;;
28431;SDS011;15664;51.302;7.744;2023-04-01T23:59:14;5.85;;;1.67;;
